createdAt,value
2016-05-27T00:00:30.496Z,1002.45
2016-05-27T00:01:30.530Z,1002.43
2016-05-27T00:02:30.595Z,1002.41
2016-05-27T00:03:30.614Z,1002.41
2016-05-27T00:04:30.664Z,1002.43
2016-05-27T00:05:30.697Z,1002.41
2016-05-27T00:06:30.747Z,1002.4
2016-05-27T00:07:30.781Z,1002.43
2016-05-27T00:08:30.814Z,1002.42
2016-05-27T00:09:30.864Z,1002.41
2016-05-27T00:10:30.914Z,1002.43
2016-05-27T00:11:30.947Z,1002.43
2016-05-27T00:12:30.982Z,1002.41
2016-05-27T00:13:31.062Z,1002.4
2016-05-27T00:14:31.066Z,1002.4
2016-05-27T00:15:31.115Z,1002.38
2016-05-27T00:16:31.148Z,1002.41
2016-05-27T00:17:31.198Z,1002.38
2016-05-27T00:18:31.279Z,1002.37
2016-05-27T00:19:31.266Z,1002.35
2016-05-27T00:20:31.316Z,1002.37
2016-05-27T00:21:31.349Z,1002.37
2016-05-27T00:22:31.383Z,1002.34
2016-05-27T00:23:31.432Z,1002.35
2016-05-27T00:24:31.483Z,1002.36
2016-05-27T00:25:31.501Z,1002.34
2016-05-27T00:26:31.551Z,1002.34
2016-05-27T00:27:31.584Z,1002.33
2016-05-27T00:28:31.665Z,1002.29
2016-05-27T00:29:31.667Z,1002.29
2016-05-27T00:30:31.701Z,1002.27
2016-05-27T00:31:31.767Z,1002.27
2016-05-27T00:32:31.786Z,1002.28
2016-05-27T00:33:31.834Z,1002.28
2016-05-27T00:34:31.869Z,1002.31
2016-05-27T00:35:31.933Z,1002.28
2016-05-27T00:36:31.952Z,1002.27
2016-05-27T00:37:31.986Z,1002.28
2016-05-27T00:38:32.036Z,1002.28
2016-05-27T00:39:32.069Z,1002.23
2016-05-27T00:40:32.119Z,1002.28
2016-05-27T00:41:32.153Z,1002.26
2016-05-27T00:42:32.218Z,1002.23
2016-05-27T00:43:32.236Z,1002.22
2016-05-27T00:44:32.271Z,1002.24
2016-05-27T00:45:32.321Z,1002.25
2016-05-27T00:46:32.354Z,1002.26
2016-05-27T00:47:32.404Z,1002.25
2016-05-27T00:48:32.437Z,1002.29
2016-05-27T00:49:32.488Z,1002.24
2016-05-27T00:50:32.521Z,1002.29
2016-05-27T00:51:32.555Z,1002.28
2016-05-27T00:52:32.604Z,1002.23
2016-05-27T00:53:32.670Z,1002.22
2016-05-27T00:54:32.688Z,1002.24
2016-05-27T00:55:32.722Z,1002.24
2016-05-27T00:56:32.756Z,1002.23
2016-05-27T00:57:32.806Z,1002.25
2016-05-27T00:58:32.839Z,1002.24
2016-05-27T00:59:32.890Z,1002.22
2016-05-27T01:00:32.923Z,1002.22
2016-05-27T01:01:32.956Z,1002.22
2016-05-27T01:02:33.007Z,1002.22
2016-05-27T01:03:33.040Z,1002.19
2016-05-27T01:04:33.090Z,1002.21
2016-05-27T01:05:33.124Z,1002.18
2016-05-27T01:06:33.158Z,1002.17
2016-05-27T01:07:33.208Z,1002.16
2016-05-27T01:08:33.241Z,1002.17
2016-05-27T01:09:33.291Z,1002.14
2016-05-27T01:10:33.324Z,1002.17
2016-05-27T01:11:33.358Z,1002.15
2016-05-27T01:12:33.408Z,1002.17
2016-05-27T01:13:33.442Z,1002.18
2016-05-27T01:14:33.492Z,1002.16
2016-05-27T01:15:33.526Z,1002.18
2016-05-27T01:16:33.575Z,1002.18
2016-05-27T01:17:33.610Z,1002.17
2016-05-27T01:18:33.660Z,1002.18
2016-05-27T01:19:33.693Z,1002.18
2016-05-27T01:20:33.727Z,1002.17
2016-05-27T01:21:33.760Z,1002.17
2016-05-27T01:22:33.811Z,1002.15
2016-05-27T01:23:33.859Z,1002.14
2016-05-27T01:24:33.893Z,1002.14
2016-05-27T01:25:33.943Z,1002.16
2016-05-27T01:26:33.962Z,1002.13
2016-05-27T01:27:34.012Z,1002.15
2016-05-27T01:28:34.046Z,1002.12
2016-05-27T01:29:34.095Z,1002.15
2016-05-27T01:30:34.129Z,1002.19
2016-05-27T01:31:34.178Z,1002.19
2016-05-27T01:32:34.212Z,1002.18
2016-05-27T01:33:34.262Z,1002.18
2016-05-27T01:34:34.296Z,1002.19
2016-05-27T01:35:34.330Z,1002.18
2016-05-27T01:36:34.378Z,1002.19
2016-05-27T01:37:34.414Z,1002.16
2016-05-27T01:38:34.463Z,1002.21
2016-05-27T01:39:34.497Z,1002.15
2016-05-27T01:40:34.530Z,1002.14
2016-05-27T01:41:34.580Z,1002.2
2016-05-27T01:42:34.614Z,1002.17
2016-05-27T01:43:34.680Z,1002.18
2016-05-27T01:44:34.697Z,1002.16
2016-05-27T01:45:34.732Z,1002.15
2016-05-27T01:46:34.797Z,1002.2
2016-05-27T01:47:34.815Z,1002.15
2016-05-27T01:48:34.865Z,1002.13
2016-05-27T01:49:34.901Z,1002.15
2016-05-27T01:50:34.985Z,1002.15
2016-05-27T01:51:35.023Z,1002.16
2016-05-27T01:52:35.076Z,1002.13
2016-05-27T01:53:35.129Z,1002.13
2016-05-27T01:54:35.196Z,1002.13
2016-05-27T01:55:35.238Z,1002.11
2016-05-27T01:56:35.293Z,1002.08
2016-05-27T01:57:35.335Z,1002.05
2016-05-27T01:58:35.392Z,1002.07
2016-05-27T01:59:35.431Z,1002.04
2016-05-27T02:00:35.468Z,1002.03
2016-05-27T02:01:35.521Z,1002.05
2016-05-27T02:02:35.556Z,1002.06
2016-05-27T02:03:35.609Z,1002
2016-05-27T02:04:35.645Z,1002.06
2016-05-27T02:05:35.680Z,1002.05
2016-05-27T02:06:35.730Z,1002.09
2016-05-27T02:07:35.766Z,1002.1
2016-05-27T02:08:35.832Z,1002.04
2016-05-27T02:09:35.850Z,1002.05
2016-05-27T02:10:35.885Z,1002.03
2016-05-27T02:11:35.934Z,1002.04
2016-05-27T02:12:35.969Z,1002.02
2016-05-27T02:13:36.019Z,1002.02
2016-05-27T02:14:36.052Z,1002.04
2016-05-27T02:15:36.102Z,1002.04
2016-05-27T02:16:36.136Z,1002.03
2016-05-27T02:17:36.171Z,1002.02
2016-05-27T02:18:36.221Z,1002.03
2016-05-27T02:19:36.255Z,1002.06
2016-05-27T02:20:36.304Z,1002.05
2016-05-27T02:21:36.337Z,1002.02
2016-05-27T02:22:36.387Z,1002
2016-05-27T02:23:36.421Z,1002.01
2016-05-27T02:24:36.455Z,1001.96
2016-05-27T02:25:36.489Z,1001.96
2016-05-27T02:26:36.538Z,1001.97
2016-05-27T02:27:36.572Z,1001.99
2016-05-27T02:28:36.622Z,1001.96
2016-05-27T02:29:36.656Z,1001.97
2016-05-27T02:30:36.690Z,1001.93
2016-05-27T02:31:36.739Z,1001.95
2016-05-27T02:32:36.773Z,1001.95
2016-05-27T02:33:36.822Z,1001.98
2016-05-27T02:34:36.873Z,1002
2016-05-27T02:35:36.891Z,1001.99
2016-05-27T02:36:36.940Z,1001.96
2016-05-27T02:37:36.974Z,1001.97
2016-05-27T02:38:37.025Z,1001.95
2016-05-27T02:39:37.058Z,1001.97
2016-05-27T02:40:37.107Z,1001.98
2016-05-27T02:41:37.141Z,1001.97
2016-05-27T02:42:37.175Z,1001.96
2016-05-27T02:43:37.225Z,1001.93
2016-05-27T02:44:37.259Z,1001.92
2016-05-27T02:45:37.293Z,1001.97
2016-05-27T02:46:37.341Z,1001.9
2016-05-27T02:47:37.423Z,1001.92
2016-05-27T02:48:37.410Z,1001.94
2016-05-27T02:49:37.460Z,1001.94
2016-05-27T02:50:37.494Z,1001.96
2016-05-27T02:51:37.543Z,1002
2016-05-27T02:52:37.593Z,1002.01
2016-05-27T02:53:37.611Z,1001.99
2016-05-27T02:54:37.707Z,1002.02
2016-05-27T02:55:37.695Z,1002.08
2016-05-27T02:56:37.744Z,1002.06
2016-05-27T02:57:37.778Z,1002.09
2016-05-27T02:58:37.812Z,1002.11
2016-05-27T02:59:37.862Z,1002.14
2016-05-27T03:00:37.896Z,1002.13
2016-05-27T03:01:37.946Z,1002.15
2016-05-27T03:02:37.979Z,1002.17
2016-05-27T03:03:38.029Z,1002.15
2016-05-27T03:04:38.062Z,1002.13
2016-05-27T03:05:38.143Z,1002.13
2016-05-27T03:06:38.146Z,1002.15
2016-05-27T03:07:38.181Z,1002.16
2016-05-27T03:08:38.214Z,1002.19
2016-05-27T03:09:38.264Z,1002.17
2016-05-27T03:10:38.298Z,1002.19
2016-05-27T03:11:38.331Z,1002.21
2016-05-27T03:12:38.397Z,1002.18
2016-05-27T03:13:38.414Z,1002.19
2016-05-27T03:14:38.465Z,1002.19
2016-05-27T03:15:38.499Z,1002.21
2016-05-27T03:16:38.564Z,1002.2
2016-05-27T03:17:38.582Z,1002.23
2016-05-27T03:18:38.616Z,1002.18
2016-05-27T03:19:38.681Z,1002.2
2016-05-27T03:20:38.700Z,1002.2
2016-05-27T03:21:38.749Z,1002.19
2016-05-27T03:22:38.783Z,1002.21
2016-05-27T03:23:38.817Z,1002.22
2016-05-27T03:24:38.866Z,1002.24
2016-05-27T03:25:38.901Z,1002.24
2016-05-27T03:26:38.949Z,1002.25
2016-05-27T03:27:38.984Z,1002.23
2016-05-27T03:28:39.018Z,1002.25
2016-05-27T03:29:39.068Z,1002.24
2016-05-27T03:30:39.148Z,1002.26
2016-05-27T03:31:39.135Z,1002.32
2016-05-27T03:32:39.185Z,1002.33
2016-05-27T03:33:39.218Z,1002.34
2016-05-27T03:34:39.268Z,1002.32
2016-05-27T03:35:39.303Z,1002.33
2016-05-27T03:36:39.351Z,1002.31
2016-05-27T03:37:39.401Z,1002.36
2016-05-27T03:38:39.420Z,1002.36
2016-05-27T03:39:39.469Z,1002.36
2016-05-27T03:40:39.503Z,1002.36
2016-05-27T03:41:39.553Z,1002.35
2016-05-27T03:42:39.587Z,1002.34
2016-05-27T03:43:39.620Z,1002.38
2016-05-27T03:44:39.670Z,1002.37
2016-05-27T03:45:39.705Z,1002.39
2016-05-27T03:46:39.753Z,1002.41
2016-05-27T03:47:39.788Z,1002.41
2016-05-27T03:48:39.853Z,1002.44
2016-05-27T03:49:39.871Z,1002.43
2016-05-27T03:50:39.921Z,1002.48
2016-05-27T03:51:39.955Z,1002.48
2016-05-27T03:52:39.988Z,1002.53
2016-05-27T03:53:40.022Z,1002.49
2016-05-27T03:54:40.072Z,1002.5
2016-05-27T03:55:40.106Z,1002.53
2016-05-27T03:56:40.155Z,1002.49
2016-05-27T03:57:40.190Z,1002.5
2016-05-27T03:58:40.239Z,1002.52
2016-05-27T03:59:40.273Z,1002.49
2016-05-27T04:00:40.307Z,1002.51
2016-05-27T04:01:40.356Z,1002.48
2016-05-27T04:02:40.390Z,1002.5
2016-05-27T04:03:41.112Z,1002.48
2016-05-27T04:04:40.474Z,1002.49
2016-05-27T04:05:40.508Z,1002.48
2016-05-27T04:06:40.557Z,1002.49
2016-05-27T04:07:40.592Z,1002.51
2016-05-27T04:08:40.641Z,1002.5
2016-05-27T04:09:40.675Z,1002.5
2016-05-27T04:10:40.756Z,1002.49
2016-05-27T04:11:40.759Z,1002.5
2016-05-27T04:12:40.808Z,1002.55
2016-05-27T04:13:40.842Z,1002.55
2016-05-27T04:14:40.875Z,1002.53
2016-05-27T04:15:40.925Z,1002.55
2016-05-27T04:16:40.959Z,1002.55
2016-05-27T04:17:41.009Z,1002.54
2016-05-27T04:18:41.043Z,1002.54
2016-05-27T04:19:41.077Z,1002.56
2016-05-27T04:20:41.127Z,1002.55
2016-05-27T04:21:41.160Z,1002.56
2016-05-27T04:22:41.210Z,1002.54
2016-05-27T04:23:41.244Z,1002.53
2016-05-27T04:24:41.293Z,1002.5
2016-05-27T04:25:41.328Z,1002.5
2016-05-27T04:26:41.377Z,1002.5
2016-05-27T04:27:41.410Z,1002.48
2016-05-27T04:28:41.445Z,1002.45
2016-05-27T04:29:41.494Z,1002.41
2016-05-27T04:30:41.528Z,1002.41
2016-05-27T04:31:41.578Z,1002.37
2016-05-27T04:32:41.612Z,1002.33
2016-05-27T04:33:41.989Z,1002.3
2016-05-27T04:34:41.695Z,1002.29
2016-05-27T04:35:41.729Z,1002.29
2016-05-27T04:36:41.778Z,1002.29
2016-05-27T04:37:41.812Z,1002.28
2016-05-27T04:38:41.862Z,1002.3
2016-05-27T04:39:41.928Z,1002.3
2016-05-27T04:40:41.945Z,1002.33
2016-05-27T04:41:41.995Z,1002.33
2016-05-27T04:42:42.029Z,1002.3
2016-05-27T04:43:42.064Z,1002.28
2016-05-27T04:44:42.097Z,1002.34
2016-05-27T04:45:42.147Z,1002.35
2016-05-27T04:46:42.431Z,1002.35
2016-05-27T04:47:42.230Z,1002.37
2016-05-27T04:48:42.264Z,1002.36
2016-05-27T04:49:42.313Z,1002.34
2016-05-27T04:50:42.347Z,1002.31
2016-05-27T04:51:42.397Z,1002.28
2016-05-27T04:52:42.431Z,1002.28
2016-05-27T04:53:42.465Z,1002.32
2016-05-27T04:54:42.515Z,1002.32
2016-05-27T04:55:42.564Z,1002.31
2016-05-27T04:56:42.598Z,1002.32
2016-05-27T04:57:42.632Z,1002.32
2016-05-27T04:58:42.682Z,1002.32
2016-05-27T04:59:42.732Z,1002.27
2016-05-27T05:00:42.765Z,1002.27
2016-05-27T05:01:42.799Z,1002.25
2016-05-27T05:02:42.832Z,1002.29
2016-05-27T05:03:42.882Z,1002.33
2016-05-27T05:04:42.932Z,1002.33
2016-05-27T05:05:42.965Z,1002.33
2016-05-27T05:06:43.000Z,1002.38
2016-05-27T05:07:43.050Z,1002.43
2016-05-27T05:08:43.084Z,1002.45
2016-05-27T05:09:43.133Z,1002.46
2016-05-27T05:10:43.167Z,1002.48
2016-05-27T05:11:43.217Z,1002.48
2016-05-27T05:12:43.267Z,1002.47
2016-05-27T05:13:43.301Z,1002.43
2016-05-27T05:14:43.334Z,1002.44
2016-05-27T05:15:43.384Z,1002.45
2016-05-27T05:16:43.417Z,1002.39
2016-05-27T05:17:43.467Z,1002.42
2016-05-27T05:18:43.501Z,1002.43
2016-05-27T05:19:43.582Z,1002.44
2016-05-27T05:20:43.600Z,1002.45
2016-05-27T05:21:43.899Z,1002.43
2016-05-27T05:22:43.668Z,1002.44
2016-05-27T05:23:43.718Z,1002.47
2016-05-27T05:24:43.752Z,1002.43
2016-05-27T05:25:43.801Z,1002.44
2016-05-27T05:26:43.866Z,1002.44
2016-05-27T05:27:43.885Z,1002.48
2016-05-27T05:28:43.919Z,1002.51
2016-05-27T05:29:43.969Z,1002.54
2016-05-27T05:30:44.001Z,1002.55
2016-05-27T05:31:44.115Z,1002.58
2016-05-27T05:32:44.086Z,1002.56
2016-05-27T05:33:44.120Z,1002.55
2016-05-27T05:34:44.169Z,1002.58
2016-05-27T05:35:44.219Z,1002.58
2016-05-27T05:36:44.253Z,1002.54
2016-05-27T05:37:44.334Z,1002.57
2016-05-27T05:38:44.337Z,1002.58
2016-05-27T05:39:44.370Z,1002.55
2016-05-27T05:40:44.420Z,1002.55
2016-05-27T05:41:44.453Z,1002.54
2016-05-27T05:42:44.691Z,1002.51
2016-05-27T05:43:44.537Z,1002.54
2016-05-27T05:44:44.586Z,1002.52
2016-05-27T05:45:44.636Z,1002.55
2016-05-27T05:46:44.670Z,1002.54
2016-05-27T05:47:44.703Z,1002.58
2016-05-27T05:48:45.347Z,1002.52
2016-05-27T05:49:44.788Z,1002.51
2016-05-27T05:50:45.041Z,1002.52
2016-05-27T05:51:45.136Z,1002.53
2016-05-27T05:52:48.108Z,1002.57
2016-05-27T05:53:45.204Z,1002.54
2016-05-27T05:54:45.223Z,1002.61
2016-05-27T05:55:45.304Z,1002.67
2016-05-27T05:56:45.088Z,1002.69
2016-05-27T05:57:45.355Z,1002.67
2016-05-27T05:58:45.171Z,1002.66
2016-05-27T05:59:45.205Z,1002.71
2016-05-27T06:00:45.458Z,1002.7
2016-05-27T06:01:45.305Z,1002.75
2016-05-27T06:02:45.635Z,1002.72
2016-05-27T06:03:45.372Z,1002.75
2016-05-27T06:04:45.421Z,1002.78
2016-05-27T06:05:45.518Z,1002.8
2016-05-27T06:06:45.552Z,1002.83
2016-05-27T06:07:45.540Z,1002.83
2016-05-27T06:08:45.589Z,1002.87
2016-05-27T06:09:45.795Z,1002.83
2016-05-27T06:10:45.891Z,1002.84
2016-05-27T06:11:45.737Z,1002.86
2016-05-27T06:12:45.770Z,1002.82
2016-05-27T06:13:45.806Z,1002.8
2016-05-27T06:14:45.839Z,1002.82
2016-05-27T06:15:46.201Z,1002.78
2016-05-27T06:16:45.922Z,1002.79
2016-05-27T06:17:45.973Z,1002.79
2016-05-27T06:18:46.022Z,1002.77
2016-05-27T06:19:46.055Z,1002.79
2016-05-27T06:20:46.106Z,1002.79
2016-05-27T06:21:46.139Z,1002.85
2016-05-27T06:22:46.189Z,1002.87
2016-05-27T06:23:46.535Z,1002.91
2016-05-27T06:24:46.475Z,1002.9
2016-05-27T06:25:46.306Z,1002.92
2016-05-27T06:26:46.355Z,1002.9
2016-05-27T06:27:46.530Z,1002.96
2016-05-27T06:28:46.439Z,1002.9
2016-05-27T06:29:46.489Z,1002.92
2016-05-27T06:30:46.679Z,1002.9
2016-05-27T06:31:46.604Z,1002.9
2016-05-27T06:32:46.607Z,1002.86
2016-05-27T06:33:46.656Z,1002.85
2016-05-27T06:34:46.690Z,1002.85
2016-05-27T06:35:46.740Z,1002.82
2016-05-27T06:36:47.007Z,1002.83
2016-05-27T06:37:47.088Z,1002.8
2016-05-27T06:38:46.982Z,1002.77
2016-05-27T06:39:46.906Z,1002.79
2016-05-27T06:40:46.957Z,1002.78
2016-05-27T06:41:46.990Z,1002.78
2016-05-27T06:42:47.039Z,1002.79
2016-05-27T06:43:47.090Z,1002.83
2016-05-27T06:44:47.123Z,1002.82
2016-05-27T06:45:47.234Z,1002.83
2016-05-27T06:46:47.206Z,1002.85
2016-05-27T06:47:47.240Z,1002.88
2016-05-27T06:48:48.697Z,1002.87
2016-05-27T06:49:47.339Z,1002.85
2016-05-27T06:50:47.373Z,1002.83
2016-05-27T06:51:47.423Z,1002.87
2016-05-27T06:52:47.457Z,1002.85
2016-05-27T06:53:47.585Z,1002.83
2016-05-27T06:54:47.556Z,1002.8
2016-05-27T06:55:47.605Z,1002.79
2016-05-27T06:56:47.812Z,1002.79
2016-05-27T06:57:47.689Z,1002.78
2016-05-27T06:58:47.833Z,1002.77
2016-05-27T06:59:47.757Z,1002.76
2016-05-27T07:00:47.821Z,1002.75
2016-05-27T07:01:47.857Z,1002.77
2016-05-27T07:02:47.891Z,1002.75
2016-05-27T07:03:47.955Z,1002.73
2016-05-27T07:04:47.973Z,1002.72
2016-05-27T07:05:48.024Z,1002.7
2016-05-27T07:06:48.057Z,1002.73
2016-05-27T07:07:48.106Z,1002.72
2016-05-27T07:08:48.157Z,1002.76
2016-05-27T07:09:48.190Z,1002.71
2016-05-27T07:10:48.240Z,1002.74
2016-05-27T07:11:48.273Z,1002.72
2016-05-27T07:12:48.323Z,1002.7
2016-05-27T07:13:48.373Z,1002.67
2016-05-27T07:14:48.422Z,1002.67
2016-05-27T07:15:48.456Z,1002.69
2016-05-27T07:16:48.490Z,1002.66
2016-05-27T07:17:48.539Z,1002.69
2016-05-27T07:18:48.590Z,1002.68
2016-05-27T07:19:48.623Z,1002.68
2016-05-27T07:20:48.673Z,1002.66
2016-05-27T07:21:48.722Z,1002.64
2016-05-27T07:22:48.757Z,1002.65
2016-05-27T07:23:48.806Z,1002.68
2016-05-27T07:24:48.839Z,1002.68
2016-05-27T07:25:48.889Z,1002.71
2016-05-27T07:26:48.924Z,1002.66
2016-05-27T07:27:48.973Z,1002.69
2016-05-27T07:28:49.007Z,1002.66
2016-05-27T07:29:49.057Z,1002.65
2016-05-27T07:30:49.106Z,1002.61
2016-05-27T07:31:49.250Z,1002.55
2016-05-27T07:32:49.205Z,1002.57
2016-05-27T07:33:49.238Z,1002.58
2016-05-27T07:34:49.274Z,1002.61
2016-05-27T07:35:49.776Z,1002.61
2016-05-27T07:36:49.435Z,1002.61
2016-05-27T07:37:49.407Z,1002.62
2016-05-27T07:38:49.502Z,1002.62
2016-05-27T07:39:49.520Z,1002.57
2016-05-27T07:40:49.540Z,1002.62
2016-05-27T07:41:49.589Z,1002.62
2016-05-27T07:42:49.654Z,1002.61
2016-05-27T07:43:49.719Z,1002.62
2016-05-27T07:44:49.707Z,1002.6
2016-05-27T07:45:49.755Z,1002.63
2016-05-27T07:46:49.790Z,1002.63
2016-05-27T07:47:49.840Z,1002.57
2016-05-27T07:48:49.889Z,1002.61
2016-05-27T07:49:49.938Z,1002.61
2016-05-27T07:50:50.004Z,1002.61
2016-05-27T07:51:50.006Z,1002.62
2016-05-27T07:52:50.055Z,1002.62
2016-05-27T07:53:50.105Z,1002.63
2016-05-27T07:54:50.139Z,1002.64
2016-05-27T07:55:50.188Z,1002.64
2016-05-27T07:56:50.222Z,1002.65
2016-05-27T07:57:50.272Z,1002.63
2016-05-27T07:58:50.322Z,1002.62
2016-05-27T07:59:50.371Z,1002.61
2016-05-27T08:00:50.406Z,1002.59
2016-05-27T08:01:50.455Z,1002.57
2016-05-27T08:02:50.504Z,1002.59
2016-05-27T08:03:50.538Z,1002.59
2016-05-27T08:04:50.572Z,1002.6
2016-05-27T08:05:50.622Z,1002.6
2016-05-27T08:06:50.671Z,1002.59
2016-05-27T08:07:50.705Z,1002.61
2016-05-27T08:08:50.786Z,1002.64
2016-05-27T08:09:50.805Z,1002.6
2016-05-27T08:10:50.963Z,1002.58
2016-05-27T08:11:50.951Z,1002.57
2016-05-27T08:12:50.937Z,1002.59
2016-05-27T08:13:50.988Z,1002.63
2016-05-27T08:14:51.021Z,1002.61
2016-05-27T08:15:51.071Z,1002.6
2016-05-27T08:16:51.104Z,1002.55
2016-05-27T08:17:51.436Z,1002.55
2016-05-27T08:18:51.189Z,1002.58
2016-05-27T08:19:51.300Z,1002.59
2016-05-27T08:20:51.287Z,1002.58
2016-05-27T08:21:51.337Z,1002.6
2016-05-27T08:22:51.370Z,1002.58
2016-05-27T08:23:51.421Z,1002.6
2016-05-27T08:24:51.470Z,1002.6
2016-05-27T08:25:51.503Z,1002.61
2016-05-27T08:26:51.553Z,1002.66
2016-05-27T08:27:51.619Z,1002.6
2016-05-27T08:28:51.653Z,1002.59
2016-05-27T08:29:51.702Z,1002.59
2016-05-27T08:30:51.752Z,1002.58
2016-05-27T08:31:51.786Z,1002.59
2016-05-27T08:32:51.819Z,1002.62
2016-05-27T08:33:52.135Z,1002.62
2016-05-27T08:34:52.950Z,1002.59
2016-05-27T08:35:51.969Z,1002.56
2016-05-27T08:36:52.455Z,1002.55
2016-05-27T08:37:52.115Z,1002.54
2016-05-27T08:38:52.101Z,1002.54
2016-05-27T08:39:52.151Z,1002.53
2016-05-27T08:40:52.513Z,1002.53
2016-05-27T08:41:52.235Z,1002.57
2016-05-27T08:42:52.268Z,1002.52
2016-05-27T08:43:52.318Z,1002.53
2016-05-27T08:44:52.384Z,1002.45
2016-05-27T08:45:52.417Z,1002.43
2016-05-27T08:46:52.451Z,1002.4
2016-05-27T08:47:52.501Z,1002.41
2016-05-27T08:48:52.550Z,1002.41
2016-05-27T08:49:52.600Z,1002.39
2016-05-27T08:50:52.634Z,1002.4
2016-05-27T08:51:52.715Z,1002.41
2016-05-27T08:52:52.734Z,1002.39
2016-05-27T08:53:52.767Z,1002.37
2016-05-27T08:54:52.832Z,1002.45
2016-05-27T08:55:52.881Z,1002.41
2016-05-27T08:56:52.916Z,1002.41
2016-05-27T08:57:52.950Z,1002.39
2016-05-27T08:58:53.014Z,1002.4
2016-05-27T08:59:53.095Z,1002.44
2016-05-27T09:00:53.097Z,1002.4
2016-05-27T09:01:53.148Z,1002.41
2016-05-27T09:02:53.228Z,1002.37
2016-05-27T09:03:53.310Z,1002.4
2016-05-27T09:04:53.281Z,1002.42
2016-05-27T09:05:53.330Z,1002.38
2016-05-27T09:06:53.380Z,1002.41
2016-05-27T09:07:53.414Z,1002.42
2016-05-27T09:08:53.463Z,1002.43
2016-05-27T09:09:53.513Z,1002.45
2016-05-27T09:10:53.563Z,1002.45
2016-05-27T09:11:53.596Z,1002.43
2016-05-27T09:12:53.677Z,1002.4
2016-05-27T09:13:53.695Z,1002.49
2016-05-27T09:14:53.793Z,1002.47
2016-05-27T09:15:53.795Z,1002.44
2016-05-27T09:16:53.844Z,1002.44
2016-05-27T09:17:53.878Z,1002.45
2016-05-27T09:18:53.944Z,1002.43
2016-05-27T09:19:53.978Z,1002.44
2016-05-27T09:20:54.026Z,1002.43
2016-05-27T09:21:54.076Z,1002.44
2016-05-27T09:22:54.110Z,1002.41
2016-05-27T09:23:54.192Z,1002.42
2016-05-27T09:24:54.210Z,1002.41
2016-05-27T09:25:54.259Z,1002.38
2016-05-27T09:26:54.309Z,1002.39
2016-05-27T09:27:54.452Z,1002.38
2016-05-27T09:28:54.408Z,1002.39
2016-05-27T09:29:54.458Z,1002.4
2016-05-27T09:30:54.491Z,1002.37
2016-05-27T09:31:54.541Z,1002.36
2016-05-27T09:32:54.622Z,1002.33
2016-05-27T09:33:54.640Z,1002.31
2016-05-27T09:34:54.689Z,1002.33
2016-05-27T09:35:54.739Z,1002.29
2016-05-27T09:36:54.774Z,1002.28
2016-05-27T09:37:54.822Z,1002.19
2016-05-27T09:38:54.872Z,1002.31
2016-05-27T09:39:54.922Z,1002.3
2016-05-27T09:40:54.971Z,1002.34
2016-05-27T09:41:55.021Z,1002.34
2016-05-27T09:42:55.071Z,1002.34
2016-05-27T09:43:55.151Z,1002.32
2016-05-27T09:44:55.154Z,1002.32
2016-05-27T09:45:55.204Z,1002.3
2016-05-27T09:46:55.253Z,1002.29
2016-05-27T09:47:55.303Z,1002.35
2016-05-27T09:48:55.352Z,1002.35
2016-05-27T09:49:55.401Z,1002.32
2016-05-27T09:50:55.436Z,1002.38
2016-05-27T09:51:55.485Z,1002.33
2016-05-27T09:52:55.534Z,1002.3
2016-05-27T09:53:55.584Z,1002.31
2016-05-27T09:54:55.634Z,1002.33
2016-05-27T09:55:55.700Z,1002.38
2016-05-27T09:56:55.717Z,1002.38
2016-05-27T09:57:55.767Z,1002.32
2016-05-27T09:58:55.832Z,1002.29
2016-05-27T09:59:55.867Z,1002.29
2016-05-27T10:00:55.916Z,1002.35
2016-05-27T10:01:55.966Z,1002.4
2016-05-27T10:02:56.014Z,1002.37
2016-05-27T10:03:56.064Z,1002.38
2016-05-27T10:04:56.098Z,1002.38
2016-05-27T10:05:56.164Z,1002.34
2016-05-27T10:06:56.198Z,1002.37
2016-05-27T10:07:56.247Z,1002.33
2016-05-27T10:08:56.312Z,1002.33
2016-05-27T10:09:56.346Z,1002.33
2016-05-27T10:10:56.395Z,1002.33
2016-05-27T10:11:56.445Z,1002.32
2016-05-27T10:12:56.496Z,1002.29
2016-05-27T10:13:56.529Z,1002.27
2016-05-27T10:14:56.579Z,1002.28
2016-05-27T10:15:56.628Z,1002.27
2016-05-27T10:16:56.693Z,1002.24
2016-05-27T10:17:56.727Z,1002.21
2016-05-27T10:18:56.777Z,1002.22
2016-05-27T10:19:56.826Z,1002.2
2016-05-27T10:20:56.876Z,1002.19
2016-05-27T10:21:56.925Z,1002.21
2016-05-27T10:22:56.975Z,1002.22
2016-05-27T10:23:57.009Z,1002.23
2016-05-27T10:24:57.074Z,1002.27
2016-05-27T10:25:57.108Z,1002.23
2016-05-27T10:26:57.158Z,1002.21
2016-05-27T10:27:57.207Z,1002.25
2016-05-27T10:28:57.256Z,1002.25
2016-05-27T10:29:57.306Z,1002.22
2016-05-27T10:30:57.356Z,1002.22
2016-05-27T10:31:57.405Z,1002.16
2016-05-27T10:32:57.455Z,1002.2
2016-05-27T10:33:57.505Z,1002.22
2016-05-27T10:34:57.663Z,1002.18
2016-05-27T10:35:57.588Z,1002.16
2016-05-27T10:36:57.638Z,1002.19
2016-05-27T10:37:57.687Z,1002.13
2016-05-27T10:38:57.737Z,1002.16
2016-05-27T10:39:57.771Z,1002.12
2016-05-27T10:40:57.820Z,1002.15
2016-05-27T10:41:57.870Z,1002.19
2016-05-27T10:42:59.951Z,1002.19
2016-05-27T10:43:57.969Z,1002.21
2016-05-27T10:44:58.019Z,1002.11
2016-05-27T10:45:58.052Z,1002.08
2016-05-27T10:46:58.118Z,1002.08
2016-05-27T10:48:01.510Z,1002.12
2016-05-27T10:48:58.201Z,1002.18
2016-05-27T10:49:59.078Z,1002.15
2016-05-27T10:50:58.300Z,1002.25
2016-05-27T10:51:58.382Z,1002.19
2016-05-27T10:52:58.399Z,1002.29
2016-05-27T10:53:58.464Z,1002.41
2016-05-27T10:54:58.498Z,1002.42
2016-05-27T10:55:58.548Z,1002.31
2016-05-27T10:56:58.623Z,1002.2
2016-05-27T10:57:58.699Z,1002.2
2016-05-27T10:58:58.789Z,1002.18
2016-05-27T10:59:58.849Z,1002.22
2016-05-27T11:00:58.971Z,1002.08
2016-05-27T11:01:58.983Z,1002.12
2016-05-27T11:02:59.058Z,1002.1
2016-05-27T11:03:59.101Z,1002.09
2016-05-27T11:04:59.237Z,1002.01
2016-05-27T11:05:59.656Z,1002.02
2016-05-27T11:06:59.287Z,1001.97
2016-05-27T11:07:59.371Z,1001.95
2016-05-27T11:08:59.393Z,1001.93
2016-05-27T11:09:59.446Z,1001.92
2016-05-27T11:10:59.812Z,1001.92
2016-05-27T11:11:59.550Z,1001.94
2016-05-27T11:12:59.601Z,1001.94
2016-05-27T11:13:59.650Z,1001.92
2016-05-27T11:14:59.718Z,1001.94
2016-05-27T11:15:59.816Z,1001.92
2016-05-27T11:16:59.803Z,1001.89
2016-05-27T11:17:59.853Z,1001.84
2016-05-27T11:18:59.902Z,1001.8
2016-05-27T11:19:59.953Z,1001.84
2016-05-27T11:21:01.768Z,1001.81
2016-05-27T11:22:00.084Z,1001.82
2016-05-27T11:23:00.102Z,1001.81
2016-05-27T11:24:00.137Z,1001.79
2016-05-27T11:25:00.358Z,1001.82
2016-05-27T11:26:00.237Z,1001.77
2016-05-27T11:27:00.286Z,1001.84
2016-05-27T11:28:00.336Z,1001.83
2016-05-27T11:29:00.432Z,1001.88
2016-05-27T11:30:00.435Z,1001.84
2016-05-27T11:31:02.937Z,1001.89
2016-05-27T11:32:00.534Z,1001.85
2016-05-27T11:33:00.583Z,1001.84
2016-05-27T11:34:00.617Z,1001.85
2016-05-27T11:35:00.668Z,1001.82
2016-05-27T11:36:00.998Z,1001.88
2016-05-27T11:37:00.765Z,1001.81
2016-05-27T11:38:00.816Z,1001.81
2016-05-27T11:39:00.865Z,1001.84
2016-05-27T11:40:00.915Z,1001.79
2016-05-27T11:41:01.715Z,1001.85
2016-05-27T11:42:01.014Z,1001.86
2016-05-27T11:43:01.064Z,1001.82
2016-05-27T11:44:01.098Z,1001.86
2016-05-27T11:45:01.178Z,1001.83
2016-05-27T11:46:01.259Z,1001.83
2016-05-27T11:47:01.262Z,1001.85
2016-05-27T11:48:01.295Z,1001.83
2016-05-27T11:49:01.345Z,1001.81
2016-05-27T11:50:01.395Z,1001.79
2016-05-27T11:51:01.444Z,1001.78
2016-05-27T11:52:01.495Z,1001.77
2016-05-27T11:53:01.544Z,1001.78
2016-05-27T11:54:01.593Z,1001.76
2016-05-27T11:55:01.642Z,1001.74
2016-05-27T11:56:01.692Z,1001.74
2016-05-27T11:57:01.741Z,1001.72
2016-05-27T11:58:01.775Z,1001.7
2016-05-27T11:59:01.825Z,1001.73
2016-05-27T12:00:01.890Z,1001.68
2016-05-27T12:01:02.175Z,1001.68
2016-05-27T12:02:01.974Z,1001.71
2016-05-27T12:03:02.039Z,1001.66
2016-05-27T12:04:02.073Z,1001.67
2016-05-27T12:05:02.123Z,1001.72
2016-05-27T12:06:02.172Z,1001.68
2016-05-27T12:07:02.222Z,1001.63
2016-05-27T12:08:02.271Z,1001.64
2016-05-27T12:09:02.321Z,1001.65